createdAt,value
2023-04-08T00:01:30.356Z,10.10
2023-04-08T00:03:57.132Z,10.48
2023-04-08T00:06:23.890Z,9.13
2023-04-08T00:08:51.182Z,10.60
2023-04-08T00:11:20.287Z,8.20
2023-04-08T00:13:47.100Z,11.05
2023-04-08T00:16:16.260Z,10.50
2023-04-08T00:18:42.955Z,10.55
2023-04-08T00:21:09.758Z,13.00
2023-04-08T00:23:36.494Z,11.23
2023-04-08T00:26:03.212Z,9.98
2023-04-08T00:28:32.158Z,11.63
2023-04-08T00:31:01.162Z,8.02
2023-04-08T00:33:30.811Z,11.50
2023-04-08T00:35:57.498Z,10.32
2023-04-08T00:38:26.528Z,12.38
2023-04-08T00:40:53.163Z,9.13
2023-04-08T00:43:21.192Z,9.20
2023-04-08T00:45:48.414Z,9.95
2023-04-08T00:48:15.369Z,11.27
2023-04-08T00:50:44.094Z,9.20
2023-04-08T00:53:10.757Z,8.77
2023-04-08T00:55:39.722Z,10.27
2023-04-08T00:58:06.367Z,10.48
2023-04-08T01:00:35.647Z,10.85
2023-04-08T01:03:14.430Z,11.10
2023-04-08T01:05:49.576Z,10.68
2023-04-08T01:08:17.624Z,11.98
2023-04-08T01:10:49.947Z,10.70
2023-04-08T01:13:18.899Z,11.40
2023-04-08T01:15:48.750Z,13.07
2023-04-08T01:18:17.235Z,10.93
2023-04-08T01:20:47.568Z,9.60
2023-04-08T01:23:42.900Z,10.40
2023-04-08T01:26:21.371Z,10.75
2023-04-08T01:28:51.385Z,10.40
2023-04-08T01:31:22.197Z,10.50
2023-04-08T01:33:50.343Z,10.60
2023-04-08T01:36:17.803Z,10.30
2023-04-08T01:38:47.870Z,9.63
2023-04-08T01:41:16.147Z,9.45
2023-04-08T01:43:47.572Z,15.55
2023-04-08T01:46:15.455Z,10.65
2023-04-08T01:48:45.926Z,11.02
2023-04-08T01:51:15.655Z,11.40
2023-04-08T01:53:44.663Z,11.70
2023-04-08T01:56:14.033Z,12.35
2023-04-08T01:58:48.930Z,12.13
2023-04-08T02:01:20.185Z,13.68
2023-04-08T02:03:48.733Z,14.10
2023-04-08T02:06:17.926Z,13.18
2023-04-08T02:08:44.593Z,13.88
2023-04-08T02:11:11.321Z,14.18
2023-04-08T02:13:38.122Z,14.30
2023-04-08T02:16:09.179Z,11.43
2023-04-08T02:18:39.409Z,14.57
2023-04-08T02:21:19.218Z,13.52
2023-04-08T02:23:51.368Z,14.40
2023-04-08T02:26:19.393Z,14.13
2023-04-08T02:28:49.370Z,10.70
2023-04-08T02:31:20.066Z,11.60
2023-04-08T02:33:50.372Z,15.35
2023-04-08T02:36:17.521Z,11.80
2023-04-08T02:38:51.435Z,14.88
2023-04-08T02:41:18.358Z,14.43
2023-04-08T02:43:46.016Z,15.20
2023-04-08T02:46:12.818Z,11.18
2023-04-08T02:48:39.666Z,12.32
2023-04-08T02:51:06.369Z,15.38
2023-04-08T02:53:33.116Z,11.70
2023-04-08T02:55:59.791Z,13.40
2023-04-08T02:58:26.444Z,12.45
2023-04-08T03:00:55.640Z,10.95
2023-04-08T03:03:27.747Z,10.77
2023-04-08T03:05:54.971Z,11.77
2023-04-08T03:08:22.055Z,13.95
2023-04-08T03:10:49.507Z,12.15
2023-04-08T03:13:17.195Z,12.65
2023-04-08T03:15:46.333Z,9.95
2023-04-08T03:18:13.247Z,10.65
2023-04-08T03:20:39.922Z,13.55
2023-04-08T03:23:06.816Z,15.10
2023-04-08T03:25:38.208Z,14.25
2023-04-08T03:28:05.286Z,14.88
2023-04-08T03:30:32.295Z,13.00
2023-04-08T03:32:59.059Z,15.27
2023-04-08T03:35:26.063Z,15.63
2023-04-08T03:37:52.989Z,12.57
2023-04-08T03:40:19.895Z,13.38
2023-04-08T03:42:46.820Z,14.80
2023-04-08T03:45:13.509Z,13.07
2023-04-08T03:47:44.043Z,13.68
2023-04-08T03:50:11.075Z,13.52
2023-04-08T03:52:37.801Z,14.15
2023-04-08T03:55:04.867Z,16.13
2023-04-08T03:57:31.511Z,13.70
2023-04-08T03:59:58.252Z,13.10
2023-04-08T04:02:25.122Z,15.90
2023-04-08T04:04:51.872Z,17.23
2023-04-08T04:07:18.769Z,12.57
2023-04-08T04:09:45.408Z,14.82
2023-04-08T04:12:12.179Z,14.10
2023-04-08T04:14:43.214Z,14.40
2023-04-08T04:17:09.931Z,16.40
2023-04-08T04:19:38.789Z,16.00
2023-04-08T04:22:05.462Z,15.77
2023-04-08T04:24:32.220Z,19.95
2023-04-08T04:26:58.885Z,15.15
2023-04-08T04:29:28.137Z,21.63
2023-04-08T04:31:54.793Z,16.20
2023-04-08T04:34:21.449Z,16.65
2023-04-08T04:36:48.139Z,16.00
2023-04-08T04:39:16.947Z,17.02
2023-04-08T04:41:47.254Z,18.67
2023-04-08T04:44:14.052Z,14.65
2023-04-08T04:46:40.807Z,18.23
2023-04-08T04:49:09.775Z,17.67
2023-04-08T04:51:36.638Z,18.23
2023-04-08T04:54:03.459Z,16.77
2023-04-08T04:56:30.188Z,17.58
2023-04-08T04:58:56.821Z,17.83
2023-04-08T05:01:26.045Z,16.13
2023-04-08T05:03:55.445Z,15.23
2023-04-08T05:06:23.594Z,17.08
2023-04-08T05:08:51.937Z,17.67
2023-04-08T05:11:19.727Z,13.70
2023-04-08T05:13:46.492Z,16.27
2023-04-08T05:16:13.384Z,14.60
2023-04-08T05:18:40.075Z,18.17
2023-04-08T05:21:06.838Z,15.50
2023-04-08T05:23:35.099Z,16.73
2023-04-08T05:26:04.388Z,16.55
2023-04-08T05:28:33.475Z,16.23
2023-04-08T05:31:00.379Z,18.75
2023-04-08T05:33:29.651Z,17.60
2023-04-08T05:35:58.661Z,15.25
2023-04-08T05:38:25.372Z,15.52
2023-04-08T05:40:54.331Z,16.17
2023-04-08T05:43:20.987Z,14.07
2023-04-08T05:45:50.025Z,16.65
2023-04-08T05:48:18.977Z,19.30
2023-04-08T05:50:48.596Z,15.45
2023-04-08T05:53:15.325Z,15.60
2023-04-08T05:55:44.367Z,20.80
2023-04-08T05:58:13.432Z,16.35
2023-04-08T06:00:40.181Z,18.58
2023-04-08T06:03:07.116Z,17.48
2023-04-08T06:05:36.251Z,17.80
2023-04-08T06:08:03.122Z,19.67
2023-04-08T06:10:29.836Z,17.58
2023-04-08T06:12:56.534Z,16.90
2023-04-08T06:15:26.210Z,16.75
2023-04-08T06:17:57.837Z,15.93
2023-04-08T06:20:26.838Z,17.45
2023-04-08T06:22:53.523Z,16.38
2023-04-08T06:25:20.255Z,17.80
2023-04-08T06:27:49.038Z,18.80
2023-04-08T06:30:16.510Z,16.17
2023-04-08T06:32:43.330Z,16.48
2023-04-08T06:35:10.235Z,20.30
2023-04-08T06:37:38.601Z,16.77
2023-04-08T06:40:06.570Z,16.85
2023-04-08T06:42:33.283Z,16.45
2023-04-08T06:45:00.574Z,16.55
2023-04-08T06:47:27.318Z,17.13
2023-04-08T06:49:59.473Z,15.32
2023-04-08T06:52:28.634Z,18.35
2023-04-08T06:54:55.397Z,17.55
2023-04-08T06:57:24.237Z,18.05
2023-04-08T06:59:51.052Z,15.15
2023-04-08T07:02:17.689Z,15.75
2023-04-08T07:04:46.760Z,16.60
2023-04-08T07:07:16.150Z,17.77
2023-04-08T07:09:46.108Z,17.45
2023-04-08T07:12:15.636Z,17.27
2023-04-08T07:14:42.394Z,17.17
2023-04-08T07:17:11.668Z,17.67
2023-04-08T07:19:38.925Z,19.13
2023-04-08T07:22:06.246Z,18.27
2023-04-08T07:24:35.377Z,20.05
2023-04-08T07:27:02.266Z,17.58
2023-04-08T07:29:31.505Z,20.13
2023-04-08T07:31:58.222Z,20.90
2023-04-08T07:34:24.899Z,21.33
2023-04-08T07:36:51.609Z,21.13
2023-04-08T07:39:18.329Z,21.00
2023-04-08T07:41:44.969Z,19.63
2023-04-08T07:44:11.676Z,21.33
2023-04-08T07:46:39.044Z,21.58
2023-04-08T07:49:05.819Z,25.00
2023-04-08T07:51:32.539Z,21.17
2023-04-08T07:54:00.083Z,22.80
2023-04-08T07:56:31.442Z,25.17
2023-04-08T07:58:58.372Z,23.02
2023-04-08T08:01:25.068Z,23.70
2023-04-08T08:03:53.183Z,26.63
2023-04-08T08:06:20.798Z,23.98
2023-04-08T08:08:47.586Z,23.70
2023-04-08T08:11:16.477Z,25.90
2023-04-08T08:13:43.424Z,26.48
2023-04-08T08:16:11.697Z,27.45
2023-04-08T08:18:40.141Z,22.00
2023-04-08T08:21:10.105Z,20.05
2023-04-08T08:23:37.758Z,21.35
2023-04-08T08:26:07.570Z,18.63
2023-04-08T08:28:34.332Z,19.23
2023-04-08T08:31:06.061Z,17.95
2023-04-08T08:33:33.410Z,16.20
2023-04-08T08:36:00.356Z,16.08
2023-04-08T08:38:27.456Z,15.02
2023-04-08T08:40:58.107Z,16.30
2023-04-08T08:43:25.751Z,15.55
2023-04-08T08:45:52.754Z,16.92
2023-04-08T08:48:22.308Z,13.60
2023-04-08T08:50:49.013Z,16.13
2023-04-08T08:53:16.156Z,16.73
2023-04-08T08:56:13.548Z,13.80
2023-04-08T08:58:34.857Z,14.55
2023-04-08T09:01:01.482Z,14.50
2023-04-08T09:03:31.230Z,14.85
2023-04-08T09:06:02.127Z,17.90
2023-04-08T09:08:32.018Z,15.13
2023-04-08T09:11:18.821Z,14.63
2023-04-08T09:13:46.530Z,13.45
2023-04-08T09:16:18.546Z,15.15
2023-04-08T09:18:49.391Z,15.02
2023-04-08T09:21:17.922Z,14.95
2023-04-08T09:23:44.578Z,16.08
2023-04-08T09:26:17.495Z,15.23
2023-04-08T09:28:57.723Z,12.83
2023-04-08T09:31:28.772Z,14.07
2023-04-08T09:34:00.550Z,13.57
2023-04-08T09:36:27.495Z,14.90
2023-04-08T09:38:55.590Z,15.13
2023-04-08T09:41:32.924Z,17.33
2023-04-08T09:44:00.697Z,13.05
2023-04-08T09:46:50.321Z,13.43
2023-04-08T09:49:22.870Z,12.50
2023-04-08T09:52:13.788Z,12.15
2023-04-08T09:55:01.868Z,12.23
2023-04-08T09:57:37.010Z,14.73
2023-04-08T10:00:18.045Z,15.38
2023-04-08T10:02:56.278Z,13.70
2023-04-08T10:05:27.276Z,12.73
2023-04-08T10:07:57.745Z,12.98
2023-04-08T10:10:26.150Z,13.55
2023-04-08T10:12:53.272Z,16.17
2023-04-08T10:15:27.470Z,15.70
2023-04-08T10:18:18.280Z,14.77
2023-04-08T10:20:49.445Z,13.68
2023-04-08T10:23:17.816Z,15.07
2023-04-08T10:25:48.743Z,13.15
2023-04-08T10:28:17.497Z,14.93
2023-04-08T10:30:45.765Z,14.55
2023-04-08T10:33:20.850Z,12.15
2023-04-08T10:35:49.512Z,13.95
2023-04-08T10:38:17.633Z,13.18
2023-04-08T10:40:47.249Z,15.07
2023-04-08T10:43:15.026Z,16.02
2023-04-08T10:45:43.276Z,18.10
2023-04-08T10:48:22.468Z,19.70
2023-04-08T10:50:53.891Z,14.70
2023-04-08T10:53:37.950Z,16.48
2023-04-08T10:58:36.665Z,18.52
2023-04-08T11:01:07.597Z,15.23
2023-04-08T11:03:36.349Z,14.98
2023-04-08T11:06:05.980Z,14.88
2023-04-08T11:08:39.404Z,15.90
2023-04-08T11:11:10.818Z,14.80
2023-04-08T11:13:40.263Z,15.75
2023-04-08T11:16:17.815Z,16.95
2023-04-08T11:18:45.998Z,15.70
2023-04-08T11:21:12.999Z,18.92
2023-04-08T11:23:41.875Z,14.48
2023-04-08T11:26:08.785Z,14.38
2023-04-08T11:28:36.035Z,14.90
2023-04-08T11:31:04.262Z,17.13
2023-04-08T11:33:37.377Z,18.75
2023-04-08T11:36:04.732Z,16.55
2023-04-08T11:38:31.975Z,15.77
2023-04-08T11:41:01.824Z,14.63
2023-04-08T11:43:28.762Z,15.30
2023-04-08T11:45:55.678Z,17.88
2023-04-08T11:48:23.683Z,17.02
2023-04-08T11:51:03.651Z,18.30
2023-04-08T11:53:30.445Z,17.67
2023-04-08T11:55:57.625Z,20.00
2023-04-08T11:58:24.365Z,14.82
2023-04-08T12:00:51.000Z,17.73
2023-04-08T12:03:17.843Z,17.42
2023-04-08T12:05:44.684Z,17.33
2023-04-08T12:08:13.939Z,19.95
2023-04-08T12:10:43.103Z,18.35
2023-04-08T12:13:09.764Z,20.13
2023-04-08T12:15:38.772Z,18.52
2023-04-08T12:18:06.224Z,18.52
2023-04-08T12:20:32.963Z,17.73
2023-04-08T12:23:01.983Z,20.48
2023-04-08T12:25:31.457Z,17.33
2023-04-08T12:27:58.156Z,19.25
2023-04-08T12:30:27.496Z,19.45
2023-04-08T12:32:55.425Z,18.48
2023-04-08T12:35:22.241Z,16.98
2023-04-08T12:37:48.943Z,16.40
2023-04-08T12:40:15.726Z,16.33
2023-04-08T12:42:42.665Z,17.20
2023-04-08T12:45:09.419Z,16.58
2023-04-08T12:47:36.444Z,17.45
2023-04-08T12:50:05.626Z,17.33
2023-04-08T12:52:33.229Z,16.45
2023-04-08T12:54:59.896Z,21.30
2023-04-08T12:57:27.295Z,15.70
2023-04-08T12:59:54.656Z,17.67
2023-04-08T13:02:21.441Z,18.33
2023-04-08T13:04:49.673Z,15.73
2023-04-08T13:07:18.519Z,17.35
2023-04-08T13:09:48.158Z,16.45
2023-04-08T13:12:16.183Z,17.35
2023-04-08T13:14:42.874Z,21.33
2023-04-08T13:17:09.506Z,15.45
2023-04-08T13:19:36.240Z,17.38
2023-04-08T13:22:02.877Z,24.35
2023-04-08T13:24:29.568Z,15.15
2023-04-08T13:26:57.410Z,13.73
2023-04-08T13:29:24.199Z,16.83
2023-04-08T13:31:53.596Z,13.23
2023-04-08T13:34:20.317Z,14.18
2023-04-08T13:36:47.028Z,13.82
2023-04-08T13:39:15.982Z,15.23
2023-04-08T13:41:42.617Z,13.65
2023-04-08T13:44:09.258Z,14.80
2023-04-08T13:46:36.094Z,16.17
2023-04-08T13:49:03.177Z,11.77
2023-04-08T13:51:32.113Z,13.38
2023-04-08T13:53:58.773Z,11.88
2023-04-08T13:56:25.476Z,12.43
2023-04-08T13:58:57.096Z,17.02
2023-04-08T14:01:24.579Z,13.43
2023-04-08T14:03:51.377Z,11.25
2023-04-08T14:06:18.068Z,10.63
2023-04-08T14:08:44.881Z,13.35
2023-04-08T14:11:13.694Z,13.10
2023-04-08T14:13:40.379Z,13.05
2023-04-08T14:16:07.290Z,11.07
2023-04-08T14:18:34.060Z,10.65
2023-04-08T14:21:01.056Z,10.73
2023-04-08T14:23:30.308Z,10.32
2023-04-08T14:25:57.041Z,11.77
2023-04-08T14:28:23.900Z,10.88
2023-04-08T14:30:53.044Z,8.82
2023-04-08T14:33:20.268Z,9.13
2023-04-08T14:35:49.594Z,9.48
2023-04-08T14:38:17.855Z,12.05
2023-04-08T14:40:44.536Z,9.77
2023-04-08T14:43:12.564Z,8.27
2023-04-08T14:45:39.697Z,11.23
2023-04-08T14:48:06.544Z,8.35
2023-04-08T14:50:33.322Z,12.38
2023-04-08T14:53:00.165Z,9.43
2023-04-08T14:55:28.590Z,12.75
2023-04-08T14:57:56.883Z,9.45
2023-04-08T15:00:24.039Z,9.85
2023-04-08T15:02:53.056Z,9.35
2023-04-08T15:05:19.859Z,8.95
2023-04-08T15:07:49.124Z,11.10
2023-04-08T15:10:18.057Z,8.00
2023-04-08T15:12:44.915Z,7.97
2023-04-08T15:15:14.008Z,7.65
2023-04-08T15:17:40.789Z,8.98
2023-04-08T15:20:08.279Z,10.85
2023-04-08T15:22:37.398Z,8.63
2023-04-08T15:25:05.543Z,8.23
2023-04-08T15:27:32.607Z,8.73
2023-04-08T15:29:59.637Z,10.27
2023-04-08T15:32:27.367Z,9.93
2023-04-08T15:34:58.872Z,9.68
2023-04-08T15:37:28.626Z,10.48
2023-04-08T15:39:55.336Z,13.90
2023-04-08T15:42:22.586Z,9.88
2023-04-08T15:44:51.460Z,13.07
2023-04-08T15:47:18.118Z,13.85
2023-04-08T15:49:44.826Z,10.55
2023-04-08T15:52:11.716Z,12.10
2023-04-08T15:54:38.363Z,11.30
2023-04-08T15:57:05.214Z,14.82
2023-04-08T15:59:32.238Z,12.90
2023-04-08T16:02:01.414Z,12.80
2023-04-08T16:04:28.774Z,12.30
2023-04-08T16:06:55.772Z,12.68
2023-04-08T16:09:26.806Z,10.23
2023-04-08T16:11:55.948Z,8.77
2023-04-08T16:14:22.744Z,11.85
2023-04-08T16:16:49.490Z,12.55
2023-04-08T16:19:16.676Z,9.13
2023-04-08T16:21:43.422Z,11.90
2023-04-08T16:24:13.129Z,13.13
2023-04-08T16:26:42.142Z,13.18
2023-04-08T16:29:08.921Z,16.35
2023-04-08T16:31:35.943Z,10.05
2023-04-08T16:34:05.046Z,11.35
2023-04-08T16:36:31.813Z,11.27
2023-04-08T16:38:58.600Z,10.18
2023-04-08T16:41:25.904Z,10.85
2023-04-08T16:43:53.044Z,11.57
2023-04-08T16:46:19.969Z,9.38
2023-04-08T16:48:46.737Z,10.43
2023-04-08T16:51:13.496Z,11.35
2023-04-08T16:53:42.748Z,16.17
2023-04-08T16:56:16.263Z,9.93
2023-04-08T16:58:43.811Z,9.13
2023-04-08T17:01:14.196Z,8.85
2023-04-08T17:03:47.790Z,11.88
2023-04-08T17:06:17.821Z,8.43
2023-04-08T17:08:44.914Z,8.63
2023-04-08T17:11:14.634Z,9.25
2023-04-08T17:13:42.872Z,11.15
2023-04-08T17:16:19.481Z,9.80
2023-04-08T17:18:50.521Z,11.82
2023-04-08T17:21:20.079Z,10.85
2023-04-08T17:23:46.890Z,10.73
2023-04-08T17:26:13.806Z,10.20
2023-04-08T17:28:43.431Z,9.10
2023-04-08T17:31:11.116Z,12.70
2023-04-08T17:33:37.917Z,10.55
2023-04-08T17:36:07.727Z,8.73
2023-04-08T17:38:36.136Z,9.35
2023-04-08T17:41:04.504Z,9.07
2023-04-08T17:43:31.365Z,10.50
2023-04-08T17:46:01.934Z,9.85
2023-04-08T17:48:28.943Z,11.68
2023-04-08T17:51:03.865Z,10.65
2023-04-08T17:53:32.151Z,13.25
2023-04-08T17:55:59.624Z,12.48
2023-04-08T17:58:27.631Z,8.65
2023-04-08T18:00:54.650Z,8.32
2023-04-08T18:03:22.310Z,10.07
2023-04-08T18:05:49.312Z,13.63
2023-04-08T18:08:16.350Z,10.82
2023-04-08T18:10:46.773Z,12.00
2023-04-08T18:13:13.836Z,9.82
2023-04-08T18:15:40.937Z,11.48
2023-04-08T18:18:07.843Z,10.60
2023-04-08T18:20:37.980Z,12.60
2023-04-08T18:23:07.330Z,12.13
2023-04-08T18:25:34.768Z,9.77
2023-04-08T18:28:01.812Z,11.98
2023-04-08T18:30:33.372Z,11.85
2023-04-08T18:33:01.904Z,12.88
2023-04-08T18:35:31.759Z,11.02
2023-04-08T18:37:58.629Z,10.45
2023-04-08T18:40:26.843Z,11.15
2023-04-08T18:42:53.724Z,10.70
2023-04-08T18:45:20.562Z,11.65
2023-04-08T18:47:47.852Z,10.93
2023-04-08T18:50:15.029Z,13.48
2023-04-08T18:52:44.709Z,10.60
2023-04-08T18:55:11.899Z,11.88
2023-04-08T18:57:39.398Z,12.23
2023-04-08T19:00:08.153Z,11.52
2023-04-08T19:02:38.277Z,10.25
2023-04-08T19:05:05.959Z,12.38
2023-04-08T19:07:33.062Z,12.00
2023-04-08T19:10:00.522Z,9.98
2023-04-08T19:12:29.962Z,10.07
2023-04-08T19:14:56.680Z,11.40
2023-04-08T19:17:25.961Z,9.88
2023-04-08T19:19:53.178Z,11.02
2023-04-08T19:22:20.173Z,12.18
2023-04-08T19:24:53.105Z,11.10
2023-04-08T19:27:21.883Z,11.27
2023-04-08T19:29:48.864Z,9.45
2023-04-08T19:32:19.085Z,9.43
2023-04-08T19:34:46.338Z,9.73
2023-04-08T19:37:13.489Z,8.25
2023-04-08T19:39:40.703Z,8.32
2023-04-08T19:42:07.853Z,9.90
2023-04-08T19:44:35.197Z,10.00
2023-04-08T19:47:02.788Z,12.13
2023-04-08T19:49:29.890Z,12.55
2023-04-08T19:51:59.430Z,11.57
2023-04-08T19:54:26.618Z,11.85
2023-04-08T19:56:54.137Z,15.95
2023-04-08T19:59:24.293Z,11.75
2023-04-08T20:01:52.223Z,11.82
2023-04-08T20:04:21.790Z,11.18
2023-04-08T20:06:48.709Z,11.88
2023-04-08T20:09:15.469Z,13.75
2023-04-08T20:11:47.615Z,10.98
2023-04-08T20:14:14.345Z,11.52
2023-04-08T20:16:41.022Z,11.00
2023-04-08T20:19:07.727Z,9.77
2023-04-08T20:21:34.979Z,13.95
2023-04-08T20:24:04.472Z,11.05
2023-04-08T20:26:31.185Z,11.70
2023-04-08T20:29:00.157Z,12.40
2023-04-08T20:31:27.876Z,12.02
2023-04-08T20:33:55.467Z,13.60
2023-04-08T20:36:25.169Z,11.88
2023-04-08T20:38:55.240Z,14.32
2023-04-08T20:41:23.183Z,12.30
2023-04-08T20:43:53.779Z,13.30
2023-04-08T20:46:20.985Z,17.55
2023-04-08T20:48:47.897Z,12.82
2023-04-08T20:51:19.786Z,15.13
2023-04-08T20:53:46.575Z,13.73
2023-04-08T20:56:15.810Z,14.27
2023-04-08T20:58:45.045Z,14.27
2023-04-08T21:01:12.046Z,13.98
2023-04-08T21:03:39.263Z,12.38
2023-04-08T21:06:06.348Z,14.13
2023-04-08T21:08:33.137Z,14.15
2023-04-08T21:10:59.879Z,15.75
2023-04-08T21:13:28.988Z,15.05
2023-04-08T21:15:55.888Z,15.40
2023-04-08T21:18:24.914Z,17.50
2023-04-08T21:20:51.622Z,14.50
2023-04-08T21:23:20.157Z,17.70
2023-04-08T21:25:46.896Z,15.85
2023-04-08T21:28:13.771Z,14.63
2023-04-08T21:30:40.551Z,16.35
2023-04-08T21:33:11.953Z,13.48
2023-04-08T21:35:38.823Z,13.25
2023-04-08T21:38:05.969Z,14.93
2023-04-08T21:40:32.768Z,15.60
2023-04-08T21:42:59.527Z,14.73
2023-04-08T21:45:26.248Z,12.25
2023-04-08T21:47:53.212Z,16.38
2023-04-08T21:50:20.089Z,13.52
2023-04-08T21:52:49.253Z,12.30
2023-04-08T21:55:15.973Z,14.07
2023-04-08T21:57:42.820Z,13.55
2023-04-08T22:00:13.616Z,15.48
2023-04-08T22:02:41.137Z,15.15
2023-04-08T22:05:08.944Z,14.98
2023-04-08T22:07:35.722Z,16.48
2023-04-08T22:10:05.186Z,16.25
2023-04-08T22:12:31.996Z,15.40
2023-04-08T22:15:01.356Z,16.50
2023-04-08T22:17:28.175Z,19.05
2023-04-08T22:19:57.286Z,16.98
2023-04-08T22:22:23.958Z,18.40
2023-04-08T22:24:51.426Z,15.18
2023-04-08T22:27:18.170Z,18.50
2023-04-08T22:29:47.041Z,17.13
2023-04-08T22:32:13.717Z,17.55
2023-04-08T22:34:45.288Z,17.73
2023-04-08T22:37:12.177Z,16.77
2023-04-08T22:39:38.922Z,20.30
2023-04-08T22:42:05.733Z,16.75
2023-04-08T22:44:36.880Z,18.33
2023-04-08T22:47:03.559Z,17.13
2023-04-08T22:49:32.449Z,18.23
2023-04-08T22:51:59.113Z,19.95
2023-04-08T22:54:28.018Z,18.77
2023-04-08T22:56:54.665Z,21.80
2023-04-08T22:59:21.359Z,18.80
2023-04-08T23:01:50.771Z,18.50
2023-04-08T23:04:19.916Z,20.98
2023-04-08T23:06:47.313Z,20.35
2023-04-08T23:09:16.583Z,21.02
2023-04-08T23:11:50.372Z,19.05
2023-04-08T23:14:17.225Z,18.83
2023-04-08T23:16:46.814Z,19.10
2023-04-08T23:19:13.579Z,19.38
2023-04-08T23:21:40.781Z,19.15
2023-04-08T23:24:07.993Z,17.98
2023-04-08T23:26:34.701Z,22.48
2023-04-08T23:29:01.374Z,19.45
2023-04-08T23:31:28.125Z,17.70
2023-04-08T23:33:54.784Z,16.60
2023-04-08T23:36:21.475Z,14.80
2023-04-08T23:38:49.368Z,13.88
2023-04-08T23:41:16.204Z,12.40
2023-04-08T23:43:42.823Z,8.98
2023-04-08T23:46:09.639Z,12.43
2023-04-08T23:48:38.841Z,9.57
2023-04-08T23:51:06.165Z,9.18
2023-04-08T23:53:32.948Z,8.35
2023-04-08T23:56:07.023Z,9.05
2023-04-08T23:58:36.475Z,8.95
